sensor_id;sensor_type;location;lat;lon;timestamp;P1;durP1;ratioP1;P2;durP2;ratioP2
21806;SDS011;11065;50.786;7.840;2022-08-19T00:00:27;14.17;;;12.67;;
21806;SDS011;11065;50.786;7.840;2022-08-19T00:02:55;14.87;;;13.27;;
21806;SDS011;11065;50.786;7.840;2022-08-19T00:05:22;15.27;;;13.67;;
21806;SDS011;11065;50.786;7.840;2022-08-19T00:07:49;15.47;;;13.87;;
21806;SDS011;11065;50.786;7.840;2022-08-19T00:10:17;16.87;;;14.27;;
21806;SDS011;11065;50.786;7.840;2022-08-19T00:12:45;14.53;;;13.03;;
21806;SDS011;11065;50.786;7.840;2022-08-19T00:15:14;14.60;;;12.97;;
21806;SDS011;11065;50.786;7.840;2022-08-19T00:17:43;14.97;;;13.37;;
21806;SDS011;11065;50.786;7.840;2022-08-19T00:20:11;14.43;;;13.03;;
21806;SDS011;11065;50.786;7.840;2022-08-19T00:22:43;15.20;;;13.30;;
21806;SDS011;11065;50.786;7.840;2022-08-19T00:38:35;13.80;;;12.27;;
21806;SDS011;11065;50.786;7.840;2022-08-19T00:41:04;13.07;;;11.67;;
21806;SDS011;11065;50.786;7.840;2022-08-19T00:43:32;14.87;;;13.30;;
21806;SDS011;11065;50.786;7.840;2022-08-19T00:45:59;16.07;;;14.07;;
21806;SDS011;11065;50.786;7.840;2022-08-19T00:48:27;16.20;;;13.57;;
21806;SDS011;11065;50.786;7.840;2022-08-19T00:50:54;16.17;;;14.53;;
21806;SDS011;11065;50.786;7.840;2022-08-19T00:53:22;18.60;;;14.73;;
21806;SDS011;11065;50.786;7.840;2022-08-19T00:55:53;17.27;;;14.90;;
21806;SDS011;11065;50.786;7.840;2022-08-19T00:58:24;16.27;;;14.60;;
21806;SDS011;11065;50.786;7.840;2022-08-19T01:00:55;17.60;;;14.60;;
21806;SDS011;11065;50.786;7.840;2022-08-19T01:03:22;16.23;;;14.53;;
21806;SDS011;11065;50.786;7.840;2022-08-19T01:05:49;16.57;;;14.87;;
21806;SDS011;11065;50.786;7.840;2022-08-19T01:08:18;15.10;;;13.50;;
21806;SDS011;11065;50.786;7.840;2022-08-19T01:10:53;13.77;;;12.37;;
21806;SDS011;11065;50.786;7.840;2022-08-19T01:13:24;15.57;;;13.87;;
21806;SDS011;11065;50.786;7.840;2022-08-19T01:16:11;16.17;;;13.77;;
21806;SDS011;11065;50.786;7.840;2022-08-19T01:18:40;17.00;;;15.10;;
21806;SDS011;11065;50.786;7.840;2022-08-19T01:21:54;16.87;;;15.07;;
21806;SDS011;11065;50.786;7.840;2022-08-19T01:23:55;15.17;;;13.60;;
21806;SDS011;11065;50.786;7.840;2022-08-19T01:26:22;15.90;;;14.07;;
21806;SDS011;11065;50.786;7.840;2022-08-19T01:28:51;15.77;;;13.37;;
21806;SDS011;11065;50.786;7.840;2022-08-19T01:31:27;14.40;;;12.97;;
21806;SDS011;11065;50.786;7.840;2022-08-19T01:33:59;16.17;;;14.30;;
21806;SDS011;11065;50.786;7.840;2022-08-19T01:36:31;15.47;;;13.87;;
21806;SDS011;11065;50.786;7.840;2022-08-19T01:39:02;17.50;;;15.50;;
21806;SDS011;11065;50.786;7.840;2022-08-19T01:41:32;17.13;;;15.33;;
21806;SDS011;11065;50.786;7.840;2022-08-19T01:43:59;17.00;;;15.23;;
21806;SDS011;11065;50.786;7.840;2022-08-19T01:46:45;16.20;;;14.10;;
21806;SDS011;11065;50.786;7.840;2022-08-19T01:49:14;16.03;;;14.10;;
21806;SDS011;11065;50.786;7.840;2022-08-19T01:51:42;16.00;;;14.30;;
21806;SDS011;11065;50.786;7.840;2022-08-19T01:54:09;15.13;;;13.53;;
21806;SDS011;11065;50.786;7.840;2022-08-19T01:56:49;15.50;;;13.10;;
21806;SDS011;11065;50.786;7.840;2022-08-19T01:59:19;16.03;;;13.67;;
21806;SDS011;11065;50.786;7.840;2022-08-19T02:01:47;15.57;;;13.60;;
21806;SDS011;11065;50.786;7.840;2022-08-19T02:04:14;15.17;;;13.33;;
21806;SDS011;11065;50.786;7.840;2022-08-19T02:06:42;15.30;;;12.80;;
21806;SDS011;11065;50.786;7.840;2022-08-19T02:09:08;14.63;;;13.13;;
21806;SDS011;11065;50.786;7.840;2022-08-19T02:11:36;16.37;;;14.67;;
21806;SDS011;11065;50.786;7.840;2022-08-19T02:14:05;15.67;;;14.07;;
21806;SDS011;11065;50.786;7.840;2022-08-19T02:16:34;14.70;;;13.13;;
21806;SDS011;11065;50.786;7.840;2022-08-19T02:19:02;16.40;;;13.93;;
21806;SDS011;11065;50.786;7.840;2022-08-19T02:21:29;15.07;;;13.57;;
21806;SDS011;11065;50.786;7.840;2022-08-19T02:23:57;14.23;;;12.80;;
21806;SDS011;11065;50.786;7.840;2022-08-19T02:26:24;15.33;;;13.30;;
21806;SDS011;11065;50.786;7.840;2022-08-19T02:28:53;14.47;;;12.97;;
21806;SDS011;11065;50.786;7.840;2022-08-19T02:31:21;15.07;;;13.47;;
21806;SDS011;11065;50.786;7.840;2022-08-19T02:33:51;14.33;;;12.83;;
21806;SDS011;11065;50.786;7.840;2022-08-19T02:36:22;16.47;;;12.67;;
21806;SDS011;11065;50.786;7.840;2022-08-19T02:38:50;14.90;;;12.50;;
21806;SDS011;11065;50.786;7.840;2022-08-19T02:41:22;14.83;;;13.33;;
21806;SDS011;11065;50.786;7.840;2022-08-19T02:43:56;13.60;;;12.20;;
21806;SDS011;11065;50.786;7.840;2022-08-19T02:46:45;13.57;;;12.17;;
21806;SDS011;11065;50.786;7.840;2022-08-19T02:49:13;13.70;;;12.20;;
21806;SDS011;11065;50.786;7.840;2022-08-19T02:51:43;15.47;;;13.43;;
21806;SDS011;11065;50.786;7.840;2022-08-19T02:54:12;15.90;;;12.70;;
21806;SDS011;11065;50.786;7.840;2022-08-19T02:56:40;17.13;;;14.93;;
21806;SDS011;11065;50.786;7.840;2022-08-19T02:59:08;16.97;;;14.70;;
21806;SDS011;11065;50.786;7.840;2022-08-19T03:01:37;18.33;;;15.37;;
21806;SDS011;11065;50.786;7.840;2022-08-19T03:04:07;16.50;;;14.80;;
21806;SDS011;11065;50.786;7.840;2022-08-19T03:06:36;16.37;;;14.13;;
21806;SDS011;11065;50.786;7.840;2022-08-19T03:09:04;14.10;;;12.50;;
21806;SDS011;11065;50.786;7.840;2022-08-19T03:11:31;14.13;;;12.67;;
21806;SDS011;11065;50.786;7.840;2022-08-19T03:13:59;17.17;;;13.73;;
21806;SDS011;11065;50.786;7.840;2022-08-19T03:16:27;13.83;;;12.40;;
21806;SDS011;11065;50.786;7.840;2022-08-19T03:18:59;13.83;;;12.43;;
21806;SDS011;11065;50.786;7.840;2022-08-19T03:21:28;15.10;;;12.57;;
21806;SDS011;11065;50.786;7.840;2022-08-19T03:23:58;13.23;;;11.83;;
21806;SDS011;11065;50.786;7.840;2022-08-19T03:26:27;13.43;;;11.97;;
21806;SDS011;11065;50.786;7.840;2022-08-19T03:28:54;14.50;;;13.00;;
21806;SDS011;11065;50.786;7.840;2022-08-19T03:31:24;14.50;;;12.83;;
21806;SDS011;11065;50.786;7.840;2022-08-19T03:34:16;14.00;;;12.27;;
21806;SDS011;11065;50.786;7.840;2022-08-19T03:36:46;16.43;;;13.67;;
21806;SDS011;11065;50.786;7.840;2022-08-19T03:39:13;17.73;;;14.73;;
21806;SDS011;11065;50.786;7.840;2022-08-19T03:41:42;16.90;;;14.77;;
21806;SDS011;11065;50.786;7.840;2022-08-19T03:44:14;15.70;;;13.17;;
21806;SDS011;11065;50.786;7.840;2022-08-19T03:46:52;14.67;;;12.70;;
21806;SDS011;11065;50.786;7.840;2022-08-19T03:49:22;14.23;;;12.70;;
21806;SDS011;11065;50.786;7.840;2022-08-19T03:51:54;14.40;;;12.53;;
21806;SDS011;11065;50.786;7.840;2022-08-19T03:54:23;14.00;;;12.07;;
21806;SDS011;11065;50.786;7.840;2022-08-19T03:56:52;15.23;;;12.57;;
21806;SDS011;11065;50.786;7.840;2022-08-19T03:59:22;15.07;;;13.23;;
21806;SDS011;11065;50.786;7.840;2022-08-19T04:01:55;14.47;;;13.03;;
21806;SDS011;11065;50.786;7.840;2022-08-19T04:04:23;15.20;;;13.40;;
21806;SDS011;11065;50.786;7.840;2022-08-19T04:06:54;16.83;;;14.37;;
21806;SDS011;11065;50.786;7.840;2022-08-19T04:09:21;14.73;;;12.60;;
21806;SDS011;11065;50.786;7.840;2022-08-19T04:11:50;14.90;;;13.30;;
21806;SDS011;11065;50.786;7.840;2022-08-19T04:14:26;15.17;;;13.17;;
21806;SDS011;11065;50.786;7.840;2022-08-19T04:16:56;13.63;;;12.17;;
21806;SDS011;11065;50.786;7.840;2022-08-19T04:19:25;13.83;;;12.07;;
21806;SDS011;11065;50.786;7.840;2022-08-19T04:21:53;14.97;;;13.20;;
21806;SDS011;11065;50.786;7.840;2022-08-19T04:24:20;14.50;;;12.57;;
21806;SDS011;11065;50.786;7.840;2022-08-19T04:26:48;14.40;;;12.90;;
21806;SDS011;11065;50.786;7.840;2022-08-19T04:29:23;14.73;;;13.23;;
21806;SDS011;11065;50.786;7.840;2022-08-19T04:31:52;15.63;;;13.53;;
21806;SDS011;11065;50.786;7.840;2022-08-19T04:34:21;16.93;;;13.33;;
21806;SDS011;11065;50.786;7.840;2022-08-19T04:36:51;14.80;;;13.30;;
21806;SDS011;11065;50.786;7.840;2022-08-19T04:39:20;15.63;;;13.20;;
21806;SDS011;11065;50.786;7.840;2022-08-19T04:42:10;15.87;;;12.97;;
21806;SDS011;11065;50.786;7.840;2022-08-19T04:44:56;13.47;;;11.87;;
21806;SDS011;11065;50.786;7.840;2022-08-19T04:47:25;14.43;;;12.63;;
21806;SDS011;11065;50.786;7.840;2022-08-19T04:50:12;13.37;;;11.97;;
21806;SDS011;11065;50.786;7.840;2022-08-19T04:52:43;13.57;;;12.17;;
21806;SDS011;11065;50.786;7.840;2022-08-19T04:55:10;14.13;;;12.63;;
21806;SDS011;11065;50.786;7.840;2022-08-19T04:57:38;14.27;;;12.77;;
21806;SDS011;11065;50.786;7.840;2022-08-19T05:00:08;13.93;;;12.30;;
21806;SDS011;11065;50.786;7.840;2022-08-19T05:02:35;15.93;;;12.90;;
21806;SDS011;11065;50.786;7.840;2022-08-19T05:05:02;16.57;;;13.57;;
21806;SDS011;11065;50.786;7.840;2022-08-19T05:07:29;14.83;;;13.20;;
21806;SDS011;11065;50.786;7.840;2022-08-19T05:09:57;13.17;;;11.83;;
21806;SDS011;11065;50.786;7.840;2022-08-19T05:12:24;15.43;;;12.77;;
21806;SDS011;11065;50.786;7.840;2022-08-19T05:14:55;17.90;;;12.93;;
21806;SDS011;11065;50.786;7.840;2022-08-19T05:17:24;17.47;;;14.03;;
21806;SDS011;11065;50.786;7.840;2022-08-19T05:19:55;17.73;;;15.07;;
21806;SDS011;11065;50.786;7.840;2022-08-19T05:22:42;15.37;;;13.40;;
21806;SDS011;11065;50.786;7.840;2022-08-19T05:25:12;17.50;;;13.73;;
21806;SDS011;11065;50.786;7.840;2022-08-19T05:27:41;15.00;;;13.40;;
21806;SDS011;11065;50.786;7.840;2022-08-19T05:30:08;16.27;;;13.93;;
21806;SDS011;11065;50.786;7.840;2022-08-19T05:32:37;16.10;;;14.07;;
21806;SDS011;11065;50.786;7.840;2022-08-19T05:35:05;15.87;;;13.93;;
21806;SDS011;11065;50.786;7.840;2022-08-19T05:37:32;16.57;;;13.83;;
21806;SDS011;11065;50.786;7.840;2022-08-19T05:39:59;16.40;;;13.77;;
21806;SDS011;11065;50.786;7.840;2022-08-19T05:42:26;16.40;;;14.40;;
21806;SDS011;11065;50.786;7.840;2022-08-19T05:44:53;16.17;;;14.13;;
21806;SDS011;11065;50.786;7.840;2022-08-19T05:47:20;17.10;;;15.37;;
21806;SDS011;11065;50.786;7.840;2022-08-19T05:49:47;17.70;;;15.13;;
21806;SDS011;11065;50.786;7.840;2022-08-19T05:52:16;18.00;;;15.87;;
21806;SDS011;11065;50.786;7.840;2022-08-19T05:54:44;18.10;;;16.17;;
21806;SDS011;11065;50.786;7.840;2022-08-19T05:57:17;17.90;;;15.70;;
21806;SDS011;11065;50.786;7.840;2022-08-19T05:59:44;17.37;;;15.53;;
21806;SDS011;11065;50.786;7.840;2022-08-19T06:02:14;18.90;;;15.80;;
21806;SDS011;11065;50.786;7.840;2022-08-19T06:04:41;18.40;;;16.03;;
21806;SDS011;11065;50.786;7.840;2022-08-19T06:07:08;19.90;;;16.00;;
21806;SDS011;11065;50.786;7.840;2022-08-19T06:09:38;16.80;;;14.93;;
21806;SDS011;11065;50.786;7.840;2022-08-19T06:12:05;16.70;;;14.97;;
21806;SDS011;11065;50.786;7.840;2022-08-19T06:14:33;17.60;;;15.67;;
21806;SDS011;11065;50.786;7.840;2022-08-19T06:17:07;18.00;;;16.10;;
21806;SDS011;11065;50.786;7.840;2022-08-19T06:19:34;18.67;;;16.67;;
21806;SDS011;11065;50.786;7.840;2022-08-19T06:22:06;15.97;;;14.27;;
21806;SDS011;11065;50.786;7.840;2022-08-19T06:24:34;18.43;;;16.03;;
21806;SDS011;11065;50.786;7.840;2022-08-19T06:27:01;17.80;;;15.90;;
21806;SDS011;11065;50.786;7.840;2022-08-19T06:29:31;17.53;;;15.47;;
21806;SDS011;11065;50.786;7.840;2022-08-19T06:32:00;20.93;;;16.07;;
21806;SDS011;11065;50.786;7.840;2022-08-19T06:34:29;18.00;;;16.10;;
21806;SDS011;11065;50.786;7.840;2022-08-19T06:36:58;19.50;;;15.47;;
21806;SDS011;11065;50.786;7.840;2022-08-19T06:39:28;18.03;;;15.87;;
21806;SDS011;11065;50.786;7.840;2022-08-19T06:41:58;18.80;;;16.03;;
21806;SDS011;11065;50.786;7.840;2022-08-19T06:44:29;18.87;;;16.77;;
21806;SDS011;11065;50.786;7.840;2022-08-19T06:47:08;16.70;;;14.63;;
21806;SDS011;11065;50.786;7.840;2022-08-19T06:49:48;15.97;;;14.23;;
21806;SDS011;11065;50.786;7.840;2022-08-19T06:52:15;16.83;;;15.10;;
21806;SDS011;11065;50.786;7.840;2022-08-19T06:54:42;18.20;;;16.17;;
21806;SDS011;11065;50.786;7.840;2022-08-19T06:57:20;18.57;;;15.93;;
21806;SDS011;11065;50.786;7.840;2022-08-19T06:59:47;18.97;;;16.97;;
21806;SDS011;11065;50.786;7.840;2022-08-19T07:02:14;18.63;;;16.67;;
21806;SDS011;11065;50.786;7.840;2022-08-19T07:04:46;17.73;;;15.93;;
21806;SDS011;11065;50.786;7.840;2022-08-19T07:07:18;20.70;;;17.87;;
21806;SDS011;11065;50.786;7.840;2022-08-19T07:09:48;22.90;;;18.83;;
21806;SDS011;11065;50.786;7.840;2022-08-19T07:12:30;17.80;;;15.37;;
21806;SDS011;11065;50.786;7.840;2022-08-19T07:15:02;17.23;;;15.40;;
21806;SDS011;11065;50.786;7.840;2022-08-19T07:17:31;20.93;;;17.27;;
21806;SDS011;11065;50.786;7.840;2022-08-19T07:20:00;18.93;;;16.93;;
21806;SDS011;11065;50.786;7.840;2022-08-19T07:22:38;18.63;;;16.73;;
21806;SDS011;11065;50.786;7.840;2022-08-19T07:25:06;20.63;;;18.30;;
21806;SDS011;11065;50.786;7.840;2022-08-19T07:27:35;20.43;;;17.37;;
21806;SDS011;11065;50.786;7.840;2022-08-19T07:30:05;19.13;;;17.07;;
21806;SDS011;11065;50.786;7.840;2022-08-19T07:32:37;21.30;;;18.50;;
21806;SDS011;11065;50.786;7.840;2022-08-19T07:35:04;20.73;;;18.47;;
21806;SDS011;11065;50.786;7.840;2022-08-19T07:37:32;19.17;;;17.07;;
21806;SDS011;11065;50.786;7.840;2022-08-19T07:40:02;22.07;;;19.80;;
21806;SDS011;11065;50.786;7.840;2022-08-19T07:42:31;24.40;;;20.60;;
21806;SDS011;11065;50.786;7.840;2022-08-19T07:44:58;21.40;;;19.10;;
21806;SDS011;11065;50.786;7.840;2022-08-19T07:47:25;18.53;;;16.63;;
21806;SDS011;11065;50.786;7.840;2022-08-19T07:50:13;22.70;;;19.53;;
21806;SDS011;11065;50.786;7.840;2022-08-19T07:52:40;22.13;;;19.80;;
21806;SDS011;11065;50.786;7.840;2022-08-19T07:55:16;21.53;;;19.20;;
21806;SDS011;11065;50.786;7.840;2022-08-19T07:58:08;19.20;;;17.10;;
21806;SDS011;11065;50.786;7.840;2022-08-19T08:00:36;23.80;;;21.23;;
21806;SDS011;11065;50.786;7.840;2022-08-19T08:03:04;23.30;;;20.80;;
21806;SDS011;11065;50.786;7.840;2022-08-19T08:05:31;22.63;;;19.97;;
21806;SDS011;11065;50.786;7.840;2022-08-19T08:08:16;18.63;;;16.67;;
21806;SDS011;11065;50.786;7.840;2022-08-19T08:11:01;21.17;;;18.90;;
21806;SDS011;11065;50.786;7.840;2022-08-19T08:13:33;24.20;;;21.60;;
21806;SDS011;11065;50.786;7.840;2022-08-19T08:16:01;19.80;;;17.33;;
21806;SDS011;11065;50.786;7.840;2022-08-19T08:18:28;19.63;;;17.63;;
21806;SDS011;11065;50.786;7.840;2022-08-19T08:20:55;19.83;;;17.70;;
21806;SDS011;11065;50.786;7.840;2022-08-19T08:23:23;18.57;;;15.77;;
21806;SDS011;11065;50.786;7.840;2022-08-19T08:25:56;19.87;;;16.73;;
21806;SDS011;11065;50.786;7.840;2022-08-19T08:28:24;19.80;;;17.70;;
21806;SDS011;11065;50.786;7.840;2022-08-19T08:30:55;17.65;;;15.85;;
21806;SDS011;11065;50.786;7.840;2022-08-19T08:33:23;19.35;;;14.57;;
21806;SDS011;11065;50.786;7.840;2022-08-19T08:36:06;17.80;;;15.93;;
21806;SDS011;11065;50.786;7.840;2022-08-19T08:38:34;19.20;;;17.17;;
21806;SDS011;11065;50.786;7.840;2022-08-19T08:44:16;16.95;;;15.23;;
21806;SDS011;11065;50.786;7.840;2022-08-19T08:46:53;16.15;;;14.65;;
21806;SDS011;11065;50.786;7.840;2022-08-19T08:54:47;19.42;;;14.63;;
21806;SDS011;11065;50.786;7.840;2022-08-19T08:57:28;16.65;;;14.95;;
21806;SDS011;11065;50.786;7.840;2022-08-19T09:00:15;16.00;;;14.43;;
21806;SDS011;11065;50.786;7.840;2022-08-19T09:02:54;13.98;;;12.57;;
21806;SDS011;11065;50.786;7.840;2022-08-19T09:05:22;12.10;;;10.90;;
21806;SDS011;11065;50.786;7.840;2022-08-19T09:11:04;12.55;;;11.25;;
21806;SDS011;11065;50.786;7.840;2022-08-19T09:16:12;12.63;;;11.52;;
21806;SDS011;11065;50.786;7.840;2022-08-19T09:18:51;9.07;;;8.27;;
21806;SDS011;11065;50.786;7.840;2022-08-19T09:21:20;7.30;;;6.50;;
21806;SDS011;11065;50.786;7.840;2022-08-19T09:23:56;7.47;;;6.35;;
21806;SDS011;11065;50.786;7.840;2022-08-19T09:26:25;6.20;;;4.95;;
21806;SDS011;11065;50.786;7.840;2022-08-19T09:29:12;5.45;;;4.95;;
21806;SDS011;11065;50.786;7.840;2022-08-19T09:31:39;5.50;;;5.00;;
21806;SDS011;11065;50.786;7.840;2022-08-19T09:34:06;5.65;;;5.07;;
21806;SDS011;11065;50.786;7.840;2022-08-19T09:36:46;5.90;;;4.50;;
21806;SDS011;11065;50.786;7.840;2022-08-19T09:39:18;4.20;;;3.80;;
21806;SDS011;11065;50.786;7.840;2022-08-19T09:41:46;4.22;;;3.80;;
21806;SDS011;11065;50.786;7.840;2022-08-19T09:44:14;3.90;;;3.50;;
21806;SDS011;11065;50.786;7.840;2022-08-19T09:46:43;5.00;;;4.50;;
21806;SDS011;11065;50.786;7.840;2022-08-19T09:49:13;5.30;;;4.72;;
21806;SDS011;11065;50.786;7.840;2022-08-19T09:51:43;4.40;;;4.00;;
21806;SDS011;11065;50.786;7.840;2022-08-19T09:54:16;4.40;;;3.72;;
21806;SDS011;11065;50.786;7.840;2022-08-19T09:56:51;4.55;;;4.10;;
21806;SDS011;11065;50.786;7.840;2022-08-19T09:59:21;4.57;;;4.13;;
21806;SDS011;11065;50.786;7.840;2022-08-19T10:01:48;4.47;;;4.07;;
21806;SDS011;11065;50.786;7.840;2022-08-19T10:04:17;5.20;;;4.20;;
21806;SDS011;11065;50.786;7.840;2022-08-19T10:06:48;5.35;;;4.40;;
21806;SDS011;11065;50.786;7.840;2022-08-19T10:09:20;6.78;;;6.18;;
21806;SDS011;11065;50.786;7.840;2022-08-19T10:12:00;5.55;;;4.72;;
21806;SDS011;11065;50.786;7.840;2022-08-19T10:14:29;5.68;;;4.65;;
21806;SDS011;11065;50.786;7.840;2022-08-19T10:16:56;4.70;;;4.20;;
21806;SDS011;11065;50.786;7.840;2022-08-19T10:19:24;5.47;;;3.90;;
21806;SDS011;11065;50.786;7.840;2022-08-19T10:21:52;5.35;;;3.40;;
21806;SDS011;11065;50.786;7.840;2022-08-19T10:24:26;4.13;;;3.65;;
21806;SDS011;11065;50.786;7.840;2022-08-19T10:26:54;3.92;;;3.50;;
21806;SDS011;11065;50.786;7.840;2022-08-19T10:29:26;6.32;;;3.83;;
21806;SDS011;11065;50.786;7.840;2022-08-19T10:35:19;3.80;;;3.38;;
21806;SDS011;11065;50.786;7.840;2022-08-19T10:37:47;3.80;;;3.40;;
21806;SDS011;11065;50.786;7.840;2022-08-19T10:44:36;4.50;;;3.25;;
21806;SDS011;11065;50.786;7.840;2022-08-19T10:47:03;4.50;;;4.10;;
21806;SDS011;11065;50.786;7.840;2022-08-19T10:49:43;3.92;;;3.53;;
21806;SDS011;11065;50.786;7.840;2022-08-19T10:52:28;5.10;;;3.67;;
21806;SDS011;11065;50.786;7.840;2022-08-19T10:55:05;3.92;;;3.53;;
21806;SDS011;11065;50.786;7.840;2022-08-19T10:57:55;5.10;;;3.78;;
21806;SDS011;11065;50.786;7.840;2022-08-19T11:00:31;5.28;;;3.90;;
21806;SDS011;11065;50.786;7.840;2022-08-19T11:02:58;4.57;;;4.18;;
21806;SDS011;11065;50.786;7.840;2022-08-19T11:05:25;4.80;;;4.32;;
21806;SDS011;11065;50.786;7.840;2022-08-19T11:07:52;4.35;;;3.95;;
21806;SDS011;11065;50.786;7.840;2022-08-19T11:10:19;7.00;;;3.75;;
21806;SDS011;11065;50.786;7.840;2022-08-19T11:12:48;3.95;;;3.55;;
21806;SDS011;11065;50.786;7.840;2022-08-19T11:15:15;4.53;;;3.72;;
21806;SDS011;11065;50.786;7.840;2022-08-19T11:17:42;3.90;;;3.60;;
21806;SDS011;11065;50.786;7.840;2022-08-19T11:20:10;3.78;;;3.47;;
21806;SDS011;11065;50.786;7.840;2022-08-19T11:22:38;4.47;;;3.35;;
21806;SDS011;11065;50.786;7.840;2022-08-19T11:25:08;4.03;;;3.35;;
21806;SDS011;11065;50.786;7.840;2022-08-19T11:27:37;3.95;;;3.50;;
21806;SDS011;11065;50.786;7.840;2022-08-19T11:30:08;3.63;;;3.33;;
21806;SDS011;11065;50.786;7.840;2022-08-19T11:32:39;4.05;;;3.30;;
21806;SDS011;11065;50.786;7.840;2022-08-19T11:35:13;3.67;;;3.20;;
21806;SDS011;11065;50.786;7.840;2022-08-19T11:37:42;3.70;;;3.35;;
21806;SDS011;11065;50.786;7.840;2022-08-19T11:40:09;4.25;;;3.35;;
21806;SDS011;11065;50.786;7.840;2022-08-19T11:42:36;3.92;;;3.35;;
21806;SDS011;11065;50.786;7.840;2022-08-19T11:45:25;3.33;;;2.75;;
21806;SDS011;11065;50.786;7.840;2022-08-19T11:47:53;3.80;;;2.83;;
21806;SDS011;11065;50.786;7.840;2022-08-19T11:50:21;3.55;;;2.78;;
21806;SDS011;11065;50.786;7.840;2022-08-19T11:52:49;3.20;;;2.67;;
21806;SDS011;11065;50.786;7.840;2022-08-19T11:55:20;3.22;;;2.88;;
21806;SDS011;11065;50.786;7.840;2022-08-19T11:57:47;3.22;;;2.92;;
21806;SDS011;11065;50.786;7.840;2022-08-19T12:00:14;4.18;;;3.85;;
21806;SDS011;11065;50.786;7.840;2022-08-19T12:02:41;3.65;;;3.35;;
21806;SDS011;11065;50.786;7.840;2022-08-19T12:05:09;3.75;;;3.45;;
21806;SDS011;11065;50.786;7.840;2022-08-19T12:07:39;3.53;;;2.80;;
21806;SDS011;11065;50.786;7.840;2022-08-19T12:10:07;7.45;;;3.58;;
21806;SDS011;11065;50.786;7.840;2022-08-19T12:12:35;4.50;;;3.60;;
21806;SDS011;11065;50.786;7.840;2022-08-19T12:15:06;3.63;;;3.28;;
21806;SDS011;11065;50.786;7.840;2022-08-19T12:17:34;3.58;;;3.17;;
21806;SDS011;11065;50.786;7.840;2022-08-19T12:20:01;4.32;;;3.28;;
21806;SDS011;11065;50.786;7.840;2022-08-19T12:22:28;5.28;;;3.88;;
21806;SDS011;11065;50.786;7.840;2022-08-19T12:24:55;4.60;;;3.40;;
21806;SDS011;11065;50.786;7.840;2022-08-19T12:27:22;3.47;;;3.17;;
21806;SDS011;11065;50.786;7.840;2022-08-19T12:30:07;3.65;;;3.35;;
21806;SDS011;11065;50.786;7.840;2022-08-19T12:32:36;4.32;;;3.60;;
21806;SDS011;11065;50.786;7.840;2022-08-19T12:35:05;3.22;;;2.92;;
21806;SDS011;11065;50.786;7.840;2022-08-19T12:37:34;3.42;;;3.10;;
21806;SDS011;11065;50.786;7.840;2022-08-19T12:40:01;6.20;;;3.58;;
21806;SDS011;11065;50.786;7.840;2022-08-19T12:42:29;3.28;;;2.97;;
21806;SDS011;11065;50.786;7.840;2022-08-19T12:44:56;3.53;;;3.17;;
21806;SDS011;11065;50.786;7.840;2022-08-19T12:47:23;3.58;;;3.28;;
21806;SDS011;11065;50.786;7.840;2022-08-19T12:49:52;3.75;;;3.10;;
21806;SDS011;11065;50.786;7.840;2022-08-19T12:52:25;4.15;;;3.13;;
21806;SDS011;11065;50.786;7.840;2022-08-19T12:54:54;3.20;;;2.90;;
21806;SDS011;11065;50.786;7.840;2022-08-19T12:57:23;4.50;;;2.75;;
21806;SDS011;11065;50.786;7.840;2022-08-19T12:59:57;2.92;;;2.67;;
21806;SDS011;11065;50.786;7.840;2022-08-19T13:02:26;3.33;;;2.75;;
21806;SDS011;11065;50.786;7.840;2022-08-19T13:04:53;4.15;;;3.45;;
21806;SDS011;11065;50.786;7.840;2022-08-19T13:07:19;4.05;;;3.67;;
21806;SDS011;11065;50.786;7.840;2022-08-19T13:09:47;5.00;;;4.43;;
21806;SDS011;11065;50.786;7.840;2022-08-19T13:12:13;4.13;;;3.58;;
21806;SDS011;11065;50.786;7.840;2022-08-19T13:14:40;4.47;;;3.95;;
21806;SDS011;11065;50.786;7.840;2022-08-19T13:17:08;4.22;;;3.83;;
21806;SDS011;11065;50.786;7.840;2022-08-19T13:19:38;4.65;;;4.03;;
21806;SDS011;11065;50.786;7.840;2022-08-19T13:22:06;5.47;;;4.70;;
21806;SDS011;11065;50.786;7.840;2022-08-19T13:24:40;6.45;;;4.10;;
21806;SDS011;11065;50.786;7.840;2022-08-19T13:27:12;4.15;;;3.25;;
21806;SDS011;11065;50.786;7.840;2022-08-19T13:29:40;3.55;;;3.25;;
21806;SDS011;11065;50.786;7.840;2022-08-19T13:32:26;5.10;;;3.63;;
21806;SDS011;11065;50.786;7.840;2022-08-19T13:35:11;4.80;;;3.75;;
21806;SDS011;11065;50.786;7.840;2022-08-19T13:37:42;6.72;;;4.10;;
21806;SDS011;11065;50.786;7.840;2022-08-19T13:40:11;5.40;;;4.13;;
21806;SDS011;11065;50.786;7.840;2022-08-19T13:42:45;5.03;;;4.05;;
21806;SDS011;11065;50.786;7.840;2022-08-19T13:45:17;4.40;;;4.00;;
21806;SDS011;11065;50.786;7.840;2022-08-19T13:47:47;4.70;;;3.90;;
21806;SDS011;11065;50.786;7.840;2022-08-19T13:50:22;4.43;;;3.78;;
21806;SDS011;11065;50.786;7.840;2022-08-19T13:52:52;3.95;;;3.55;;
21806;SDS011;11065;50.786;7.840;2022-08-19T13:55:20;4.03;;;3.63;;
21806;SDS011;11065;50.786;7.840;2022-08-19T13:57:53;3.47;;;3.17;;
21806;SDS011;11065;50.786;7.840;2022-08-19T14:00:25;4.43;;;3.60;;
21806;SDS011;11065;50.786;7.840;2022-08-19T14:02:54;5.25;;;3.10;;
21806;SDS011;11065;50.786;7.840;2022-08-19T14:05:23;3.97;;;3.10;;
21806;SDS011;11065;50.786;7.840;2022-08-19T14:07:51;4.22;;;3.50;;
21806;SDS011;11065;50.786;7.840;2022-08-19T14:10:20;4.18;;;3.22;;
21806;SDS011;11065;50.786;7.840;2022-08-19T14:12:51;4.70;;;3.20;;
21806;SDS011;11065;50.786;7.840;2022-08-19T14:15:22;4.20;;;2.90;;
21806;SDS011;11065;50.786;7.840;2022-08-19T14:17:49;3.67;;;3.15;;
21806;SDS011;11065;50.786;7.840;2022-08-19T14:20:16;5.80;;;3.90;;
21806;SDS011;11065;50.786;7.840;2022-08-19T14:22:44;3.88;;;3.50;;
21806;SDS011;11065;50.786;7.840;2022-08-19T14:25:13;4.22;;;3.28;;
21806;SDS011;11065;50.786;7.840;2022-08-19T14:27:45;4.55;;;3.33;;
21806;SDS011;11065;50.786;7.840;2022-08-19T14:30:13;4.47;;;4.00;;
21806;SDS011;11065;50.786;7.840;2022-08-19T14:32:42;4.07;;;3.67;;
21806;SDS011;11065;50.786;7.840;2022-08-19T14:35:10;5.43;;;3.83;;
21806;SDS011;11065;50.786;7.840;2022-08-19T14:37:38;5.00;;;4.10;;
21806;SDS011;11065;50.786;7.840;2022-08-19T14:40:12;5.75;;;4.05;;
21806;SDS011;11065;50.786;7.840;2022-08-19T14:42:40;4.45;;;4.05;;
21806;SDS011;11065;50.786;7.840;2022-08-19T14:45:08;4.18;;;3.75;;
21806;SDS011;11065;50.786;7.840;2022-08-19T14:47:37;4.40;;;4.00;;
21806;SDS011;11065;50.786;7.840;2022-08-19T14:50:06;5.18;;;4.32;;
21806;SDS011;11065;50.786;7.840;2022-08-19T14:52:43;4.22;;;3.38;;
21806;SDS011;11065;50.786;7.840;2022-08-19T14:55:10;6.40;;;4.53;;
21806;SDS011;11065;50.786;7.840;2022-08-19T14:57:37;4.63;;;4.15;;
21806;SDS011;11065;50.786;7.840;2022-08-19T15:00:06;4.53;;;4.10;;
21806;SDS011;11065;50.786;7.840;2022-08-19T15:02:37;5.05;;;4.50;;
21806;SDS011;11065;50.786;7.840;2022-08-19T15:05:05;4.95;;;4.45;;
21806;SDS011;11065;50.786;7.840;2022-08-19T15:07:32;5.90;;;4.28;;
21806;SDS011;11065;50.786;7.840;2022-08-19T15:09:59;4.85;;;4.35;;
21806;SDS011;11065;50.786;7.840;2022-08-19T15:12:26;4.63;;;4.22;;
21806;SDS011;11065;50.786;7.840;2022-08-19T15:14:53;5.10;;;4.18;;
21806;SDS011;11065;50.786;7.840;2022-08-19T15:17:23;7.13;;;4.88;;
21806;SDS011;11065;50.786;7.840;2022-08-19T15:20:11;5.18;;;4.68;;
21806;SDS011;11065;50.786;7.840;2022-08-19T15:22:39;4.95;;;4.43;;
21806;SDS011;11065;50.786;7.840;2022-08-19T15:25:08;5.05;;;4.60;;